createdAt,value
2023-01-08T00:01:14.445Z,8.60
2023-01-08T00:03:41.925Z,8.60
2023-01-08T00:06:14.475Z,8.70
2023-01-08T00:08:41.826Z,8.70
2023-01-08T00:11:09.329Z,8.70
2023-01-08T00:13:36.571Z,8.70
2023-01-08T00:16:12.695Z,8.80
2023-01-08T00:18:40.126Z,8.80
2023-01-08T00:21:07.651Z,8.80
2023-01-08T00:23:35.437Z,8.80
2023-01-08T00:26:04.580Z,8.90
2023-01-08T00:28:31.762Z,8.90
2023-01-08T00:30:59.647Z,8.90
2023-01-08T00:33:27.297Z,8.90
2023-01-08T00:35:54.573Z,8.90
2023-01-08T00:38:27.007Z,8.90
2023-01-08T00:40:53.945Z,8.90
2023-01-08T00:43:21.886Z,8.90
2023-01-08T00:45:51.813Z,8.90
2023-01-08T00:48:19.104Z,8.90
2023-01-08T00:50:46.152Z,8.90
2023-01-08T00:53:13.406Z,8.90
2023-01-08T00:55:40.896Z,8.90
2023-01-08T00:58:07.824Z,8.80
2023-01-08T01:00:34.760Z,8.80
2023-01-08T01:03:01.639Z,8.90
2023-01-08T01:05:28.667Z,8.90
2023-01-08T01:07:55.733Z,8.90
2023-01-08T01:10:22.951Z,8.80
2023-01-08T01:12:50.558Z,8.80
2023-01-08T01:15:19.682Z,8.80
2023-01-08T01:17:47.186Z,8.80
2023-01-08T01:20:17.035Z,8.80
2023-01-08T01:22:44.230Z,8.70
2023-01-08T01:25:11.302Z,8.80
2023-01-08T01:27:38.278Z,8.80
2023-01-08T01:30:06.448Z,8.70
2023-01-08T01:32:33.920Z,8.70
2023-01-08T01:35:01.171Z,8.70
2023-01-08T01:37:28.142Z,8.70
2023-01-08T01:39:56.380Z,8.70
2023-01-08T01:42:41.762Z,8.70
2023-01-08T01:45:16.889Z,8.70
2023-01-08T01:47:58.760Z,8.70
2023-01-08T01:50:54.238Z,8.70
2023-01-08T01:53:32.446Z,8.60
2023-01-08T01:56:01.471Z,8.60
2023-01-08T01:58:31.008Z,8.60
2023-01-08T02:01:03.334Z,8.50
2023-01-08T02:03:34.425Z,8.50
2023-01-08T02:06:35.006Z,8.40
2023-01-08T02:09:27.082Z,8.50
2023-01-08T02:12:17.697Z,8.50
2023-01-08T02:15:22.547Z,8.40
2023-01-08T02:18:00.230Z,8.40
2023-01-08T02:20:38.125Z,8.40
2023-01-08T02:23:53.531Z,8.40
2023-01-08T02:26:33.626Z,8.40
2023-01-08T02:29:12.044Z,8.40
2023-01-08T02:31:42.692Z,8.50
2023-01-08T02:34:12.388Z,8.40
2023-01-08T02:36:42.999Z,8.40
2023-01-08T02:39:40.256Z,8.40
2023-01-08T02:42:28.103Z,8.40
2023-01-08T02:45:17.619Z,8.40
2023-01-08T02:48:17.729Z,8.30
2023-01-08T02:51:16.986Z,8.30
2023-01-08T02:53:47.862Z,8.30
2023-01-08T02:56:22.911Z,8.30
2023-01-08T02:58:52.764Z,8.30
2023-01-08T03:01:23.561Z,8.30
2023-01-08T03:04:00.461Z,8.30
2023-01-08T03:06:29.084Z,8.30
2023-01-08T03:08:56.668Z,8.30
2023-01-08T03:11:30.155Z,8.30
2023-01-08T03:14:16.542Z,8.30
2023-01-08T03:16:49.887Z,8.30
2023-01-08T03:19:33.391Z,8.30
2023-01-08T03:22:02.603Z,8.30
2023-01-08T03:24:35.010Z,8.30
2023-01-08T03:27:07.390Z,8.30
2023-01-08T03:29:36.272Z,8.30
2023-01-08T03:32:09.377Z,8.30
2023-01-08T03:34:38.537Z,8.20
2023-01-08T03:37:08.430Z,8.30
2023-01-08T03:40:10.383Z,8.30
2023-01-08T03:42:37.641Z,8.30
2023-01-08T03:45:05.148Z,8.20
2023-01-08T03:47:33.718Z,8.20
2023-01-08T03:50:10.027Z,8.30
2023-01-08T03:52:37.043Z,8.30
2023-01-08T03:55:05.182Z,8.30
2023-01-08T03:57:32.203Z,8.30
2023-01-08T03:59:59.146Z,8.30
2023-01-08T04:02:26.167Z,8.30
2023-01-08T04:04:53.388Z,8.40
2023-01-08T04:07:20.427Z,8.30
2023-01-08T04:09:47.477Z,8.30
2023-01-08T04:12:14.682Z,8.30
2023-01-08T04:14:41.684Z,8.30
2023-01-08T04:17:12.464Z,8.30
2023-01-08T04:19:39.509Z,8.30
2023-01-08T04:22:06.625Z,8.20
2023-01-08T04:24:33.635Z,8.20
2023-01-08T04:27:00.666Z,8.20
2023-01-08T04:29:27.553Z,8.20
2023-01-08T04:31:54.631Z,8.20
2023-01-08T04:34:21.571Z,8.10
2023-01-08T04:36:49.470Z,8.20
2023-01-08T04:39:16.894Z,8.20
2023-01-08T04:41:43.813Z,8.20
2023-01-08T04:44:10.858Z,8.20
2023-01-08T04:46:38.115Z,8.10
2023-01-08T04:49:05.020Z,8.10
2023-01-08T04:51:32.021Z,8.10
2023-01-08T04:53:59.385Z,8.10
2023-01-08T04:56:26.303Z,8.00
2023-01-08T04:58:53.186Z,8.10
2023-01-08T05:01:26.255Z,8.00
2023-01-08T05:03:59.585Z,7.90
2023-01-08T05:06:28.581Z,8.00
2023-01-08T05:08:55.956Z,8.00
2023-01-08T05:11:23.831Z,7.90
2023-01-08T05:13:53.206Z,7.90
2023-01-08T05:16:20.458Z,7.90
2023-01-08T05:18:47.445Z,7.90
2023-01-08T05:21:14.551Z,7.80
2023-01-08T05:23:47.776Z,7.90
2023-01-08T05:26:16.570Z,7.90
2023-01-08T05:28:44.442Z,7.90
2023-01-08T05:31:12.201Z,7.80
2023-01-08T05:33:39.558Z,7.80
2023-01-08T05:36:12.440Z,7.80
2023-01-08T05:38:39.572Z,7.80
2023-01-08T05:41:08.181Z,7.70
2023-01-08T05:43:35.693Z,7.80
2023-01-08T05:46:04.117Z,7.70
2023-01-08T05:48:34.298Z,7.70
2023-01-08T05:51:01.750Z,7.70
2023-01-08T05:53:28.847Z,7.70
2023-01-08T05:56:09.311Z,7.70
2023-01-08T05:58:36.987Z,7.70
2023-01-08T06:01:12.192Z,7.70
2023-01-08T06:03:40.057Z,7.70
2023-01-08T06:06:08.158Z,7.70
2023-01-08T06:08:35.337Z,7.70
2023-01-08T06:11:05.825Z,7.70
2023-01-08T06:13:34.458Z,7.70
2023-01-08T06:16:02.544Z,7.70
2023-01-08T06:18:31.053Z,7.70
2023-01-08T06:20:58.233Z,7.60
2023-01-08T06:23:25.774Z,7.60
2023-01-08T06:25:57.535Z,7.60
2023-01-08T06:28:25.383Z,7.60
2023-01-08T06:30:52.671Z,7.60
2023-01-08T06:33:21.569Z,7.60
2023-01-08T06:35:48.784Z,7.50
2023-01-08T06:38:16.219Z,7.50
2023-01-08T06:40:43.596Z,7.50
2023-01-08T06:43:10.859Z,7.50
2023-01-08T06:45:37.816Z,7.50
2023-01-08T06:48:07.144Z,7.50
2023-01-08T06:50:35.718Z,7.50
2023-01-08T06:53:02.729Z,7.50
2023-01-08T06:55:30.031Z,7.40
2023-01-08T06:57:58.880Z,7.50
2023-01-08T07:00:27.464Z,7.40
2023-01-08T07:02:55.146Z,7.40
2023-01-08T07:05:23.209Z,7.40
2023-01-08T07:07:50.881Z,7.40
2023-01-08T07:10:20.001Z,7.40
2023-01-08T07:12:47.818Z,7.50
2023-01-08T07:15:15.217Z,7.40
2023-01-08T07:17:42.452Z,7.40
2023-01-08T07:20:10.014Z,7.40
2023-01-08T07:22:37.129Z,7.30
2023-01-08T07:25:05.364Z,7.40
2023-01-08T07:27:32.586Z,7.40
2023-01-08T07:29:59.953Z,7.30
2023-01-08T07:32:26.914Z,7.30
2023-01-08T07:34:54.727Z,7.40
2023-01-08T07:37:21.716Z,7.40
2023-01-08T07:39:48.764Z,7.40
2023-01-08T07:42:15.688Z,7.40
2023-01-08T07:44:42.842Z,7.40
2023-01-08T07:47:09.707Z,7.40
2023-01-08T07:49:36.659Z,7.40
2023-01-08T07:52:03.686Z,7.50
2023-01-08T07:54:30.680Z,7.40
2023-01-08T07:56:57.908Z,7.50
2023-01-08T07:59:24.943Z,7.50
2023-01-08T08:01:52.189Z,7.50
2023-01-08T08:04:19.390Z,7.60
2023-01-08T08:06:46.372Z,7.50
2023-01-08T08:09:13.713Z,7.50
2023-01-08T08:11:41.087Z,7.50
2023-01-08T08:14:08.848Z,7.50
2023-01-08T08:16:35.867Z,7.50
2023-01-08T08:19:03.426Z,7.50
2023-01-08T08:21:31.031Z,7.60
2023-01-08T08:23:58.413Z,7.50
2023-01-08T08:26:25.607Z,7.50
2023-01-08T08:28:52.688Z,7.50
2023-01-08T08:31:19.850Z,7.60
2023-01-08T08:33:47.122Z,7.50
2023-01-08T08:36:14.162Z,7.50
2023-01-08T08:38:41.394Z,7.50
2023-01-08T08:41:08.358Z,7.50
2023-01-08T08:43:35.720Z,7.60
2023-01-08T08:46:03.000Z,7.60
2023-01-08T08:48:30.252Z,7.70
2023-01-08T08:50:57.338Z,7.70
2023-01-08T08:53:26.368Z,7.70
2023-01-08T08:55:54.540Z,7.70
2023-01-08T08:58:21.555Z,7.70
2023-01-08T09:00:49.703Z,7.70
2023-01-08T09:03:17.118Z,7.70
2023-01-08T09:05:44.659Z,7.70
2023-01-08T09:08:15.177Z,7.70
2023-01-08T09:10:42.800Z,7.80
2023-01-08T09:13:10.940Z,7.70
2023-01-08T09:15:39.014Z,7.80
2023-01-08T09:18:06.264Z,7.90
2023-01-08T09:20:33.472Z,7.90
2023-01-08T09:23:01.672Z,7.80
2023-01-08T09:25:29.528Z,7.90
2023-01-08T09:28:06.780Z,7.90
2023-01-08T09:30:34.429Z,7.80
2023-01-08T09:33:03.322Z,7.80
2023-01-08T09:35:32.482Z,7.90
2023-01-08T09:37:59.936Z,7.80
2023-01-08T09:40:34.034Z,7.90
2023-01-08T09:43:02.541Z,7.90
2023-01-08T09:45:34.943Z,8.00
2023-01-08T09:48:14.355Z,8.00
2023-01-08T09:50:41.511Z,8.10
2023-01-08T09:53:17.409Z,8.20
2023-01-08T09:55:51.767Z,8.30
2023-01-08T09:58:33.912Z,8.30
2023-01-08T10:01:03.129Z,8.40
2023-01-08T10:03:43.559Z,8.40
2023-01-08T10:06:13.490Z,8.40
2023-01-08T10:08:40.854Z,8.30
2023-01-08T10:11:10.867Z,8.30
2023-01-08T10:13:40.885Z,8.30
2023-01-08T10:16:10.569Z,8.30
2023-01-08T10:18:38.200Z,8.40
2023-01-08T10:21:05.607Z,8.50
2023-01-08T10:23:32.675Z,8.50
2023-01-08T10:26:04.905Z,8.60
2023-01-08T10:28:38.173Z,8.60
2023-01-08T10:31:17.530Z,8.70
2023-01-08T10:33:47.811Z,8.70
2023-01-08T10:36:19.751Z,8.70
2023-01-08T10:39:01.130Z,8.60
2023-01-08T10:41:29.401Z,8.60
2023-01-08T10:44:04.479Z,8.60
2023-01-08T10:46:57.206Z,8.60
2023-01-08T10:49:39.360Z,8.70
2023-01-08T10:52:19.118Z,8.80
2023-01-08T10:54:46.237Z,8.90
2023-01-08T10:57:28.949Z,9.00
2023-01-08T10:59:57.377Z,9.00
2023-01-08T11:02:38.386Z,9.00
2023-01-08T11:05:09.199Z,8.90
2023-01-08T11:07:37.213Z,8.80
2023-01-08T11:10:05.247Z,8.70
2023-01-08T11:12:40.846Z,8.70
2023-01-08T11:15:19.765Z,8.70
2023-01-08T11:17:47.371Z,8.70
2023-01-08T11:20:31.347Z,8.70
2023-01-08T11:23:19.773Z,8.70
2023-01-08T11:26:11.841Z,8.80
2023-01-08T11:29:04.329Z,9.00
2023-01-08T11:31:49.771Z,9.00
2023-01-08T11:34:37.293Z,9.00
2023-01-08T11:37:22.192Z,9.10
2023-01-08T11:39:49.423Z,9.20
2023-01-08T11:42:48.929Z,9.30
2023-01-08T11:45:29.184Z,9.20
2023-01-08T11:48:22.389Z,9.20
2023-01-08T11:51:24.295Z,9.30
2023-01-08T11:54:15.523Z,9.20
2023-01-08T11:57:18.820Z,9.00
2023-01-08T11:59:58.653Z,8.90
2023-01-08T12:02:52.062Z,9.00
2023-01-08T12:05:26.933Z,8.80
2023-01-08T12:08:01.331Z,8.70
2023-01-08T12:11:08.670Z,8.70
2023-01-08T12:13:58.233Z,8.70
2023-01-08T12:16:52.280Z,8.70
2023-01-08T12:19:40.417Z,8.70
2023-01-08T12:22:32.456Z,8.70
2023-01-08T12:25:19.527Z,8.70
2023-01-08T12:28:17.371Z,8.70
2023-01-08T12:31:25.761Z,8.80
2023-01-08T12:33:57.800Z,8.80
2023-01-08T12:36:31.249Z,8.70
2023-01-08T12:39:17.245Z,8.70
2023-01-08T12:41:45.823Z,8.70
2023-01-08T12:44:23.657Z,8.60
2023-01-08T12:46:52.997Z,8.50
2023-01-08T12:49:33.275Z,8.40
2023-01-08T12:52:09.322Z,8.30
2023-01-08T12:55:18.389Z,8.30
2023-01-08T12:58:05.365Z,8.30
2023-01-08T13:01:07.588Z,8.30
2023-01-08T13:03:34.631Z,8.20
2023-01-08T13:06:16.204Z,8.20
2023-01-08T13:08:52.863Z,8.10
2023-01-08T13:11:38.510Z,8.20
2023-01-08T13:14:11.503Z,8.20
2023-01-08T13:16:40.488Z,8.10
2023-01-08T13:19:24.099Z,8.10
2023-01-08T13:21:54.782Z,8.10
2023-01-08T13:24:38.698Z,8.10
2023-01-08T13:27:27.401Z,8.10
2023-01-08T13:29:54.646Z,8.20
2023-01-08T13:32:47.178Z,8.30
2023-01-08T13:35:17.486Z,8.30
2023-01-08T13:38:14.827Z,8.30
2023-01-08T13:40:44.849Z,8.30
2023-01-08T13:43:36.116Z,8.40
2023-01-08T13:46:03.094Z,8.40
2023-01-08T13:48:40.982Z,8.40
2023-01-08T13:51:30.698Z,8.30
2023-01-08T13:54:07.387Z,8.30
2023-01-08T13:56:34.491Z,8.30
2023-01-08T13:59:01.457Z,8.30
2023-01-08T14:01:28.473Z,8.30
2023-01-08T14:03:55.613Z,8.30
2023-01-08T14:06:28.266Z,8.20
2023-01-08T14:09:04.623Z,8.30
2023-01-08T14:11:45.170Z,8.30
2023-01-08T14:14:20.929Z,8.30
2023-01-08T14:16:50.648Z,8.40
2023-01-08T14:19:24.520Z,8.40
2023-01-08T14:21:56.780Z,8.40
2023-01-08T14:24:26.183Z,8.50
2023-01-08T14:26:59.235Z,8.50
2023-01-08T14:29:30.107Z,8.40
2023-01-08T14:32:00.345Z,8.50
2023-01-08T14:34:30.903Z,8.50
2023-01-08T14:36:58.314Z,8.50
2023-01-08T14:39:38.294Z,8.50
2023-01-08T14:42:44.661Z,8.40
2023-01-08T14:45:21.921Z,8.40
2023-01-08T14:47:53.472Z,8.40
2023-01-08T14:50:34.421Z,8.30
2023-01-08T14:53:46.236Z,8.30
2023-01-08T14:56:16.924Z,8.30
2023-01-08T14:58:45.310Z,8.40
2023-01-08T15:01:23.617Z,8.40
2023-01-08T15:03:53.735Z,8.40
2023-01-08T15:06:33.007Z,8.40
2023-01-08T15:09:00.634Z,8.30
2023-01-08T15:11:32.287Z,8.30
2023-01-08T15:13:59.657Z,8.40
2023-01-08T15:16:34.576Z,8.30
2023-01-08T15:19:10.304Z,8.30
2023-01-08T15:21:37.590Z,8.30
2023-01-08T15:24:06.676Z,8.30
2023-01-08T15:26:34.125Z,8.40
2023-01-08T15:29:05.703Z,8.30
2023-01-08T15:31:41.974Z,8.30
2023-01-08T15:34:09.484Z,8.20
2023-01-08T15:36:36.649Z,8.20
2023-01-08T15:39:05.006Z,8.20
2023-01-08T15:41:56.151Z,8.20
2023-01-08T15:44:24.271Z,8.30
2023-01-08T15:46:54.548Z,8.30
2023-01-08T15:49:21.455Z,8.20
2023-01-08T15:51:51.030Z,8.20
2023-01-08T15:54:21.455Z,8.20
2023-01-08T15:56:48.408Z,8.20
2023-01-08T15:59:15.404Z,8.20
2023-01-08T16:01:42.645Z,8.10
2023-01-08T16:04:09.576Z,8.10
2023-01-08T16:06:36.852Z,8.10
2023-01-08T16:09:03.906Z,8.00
2023-01-08T16:11:30.833Z,8.00
2023-01-08T16:13:57.663Z,8.00
2023-01-08T16:16:24.772Z,7.90
2023-01-08T16:18:52.650Z,7.80
2023-01-08T16:21:19.605Z,7.70
2023-01-08T16:23:46.559Z,7.60
2023-01-08T16:26:15.372Z,7.60
2023-01-08T16:28:42.690Z,7.50
2023-01-08T16:31:10.278Z,7.50
2023-01-08T16:33:37.756Z,7.50
2023-01-08T16:36:08.015Z,7.40
2023-01-08T16:38:36.402Z,7.40
2023-01-08T16:41:04.642Z,7.50
2023-01-08T16:43:39.345Z,7.60
2023-01-08T16:46:17.911Z,7.70
2023-01-08T16:48:47.002Z,7.70
2023-01-08T16:51:14.805Z,7.70
2023-01-08T16:53:42.308Z,7.80
2023-01-08T16:56:10.347Z,7.70
2023-01-08T16:58:37.399Z,7.80
2023-01-08T17:01:10.578Z,7.80
2023-01-08T17:03:38.539Z,7.80
2023-01-08T17:06:11.260Z,7.80
2023-01-08T17:08:40.208Z,7.90
2023-01-08T17:11:14.973Z,7.90
2023-01-08T17:13:42.344Z,7.80
2023-01-08T17:16:13.188Z,7.80
2023-01-08T17:18:40.775Z,7.70
2023-01-08T17:21:10.344Z,7.60
2023-01-08T17:23:38.360Z,7.60
2023-01-08T17:26:16.747Z,7.70
2023-01-08T17:28:44.949Z,7.70
2023-01-08T17:31:15.635Z,7.70
2023-01-08T17:33:42.913Z,7.80
2023-01-08T17:36:24.819Z,7.80
2023-01-08T17:38:54.629Z,7.70
2023-01-08T17:41:41.457Z,7.70
2023-01-08T17:44:12.400Z,7.70
2023-01-08T17:46:42.423Z,7.50
2023-01-08T17:49:11.587Z,7.50
2023-01-08T17:51:40.932Z,7.40
2023-01-08T17:54:15.606Z,7.30
2023-01-08T17:56:43.945Z,7.30
2023-01-08T17:59:16.036Z,7.20
2023-01-08T18:01:45.227Z,7.10
2023-01-08T18:04:13.894Z,7.10
2023-01-08T18:06:42.046Z,7.10
2023-01-08T18:09:13.080Z,7.00
2023-01-08T18:11:41.845Z,6.90
2023-01-08T18:14:12.422Z,6.90
2023-01-08T18:16:39.740Z,6.90
2023-01-08T18:19:06.696Z,6.80
2023-01-08T18:21:33.673Z,6.80
2023-01-08T18:24:00.477Z,6.80
2023-01-08T18:26:28.291Z,6.90
2023-01-08T18:28:55.430Z,6.90
2023-01-08T18:31:24.143Z,7.00
2023-01-08T18:33:52.727Z,7.00
2023-01-08T18:36:20.923Z,6.90
2023-01-08T18:38:49.163Z,6.90
2023-01-08T18:41:38.194Z,6.90
2023-01-08T18:44:08.247Z,6.90
2023-01-08T18:46:35.692Z,6.90
2023-01-08T18:49:03.199Z,7.00
2023-01-08T18:51:30.283Z,7.00
2023-01-08T18:53:57.371Z,7.00
2023-01-08T18:56:33.518Z,6.90
2023-01-08T18:59:01.339Z,6.80
2023-01-08T19:01:29.309Z,6.80
2023-01-08T19:03:56.836Z,6.80
2023-01-08T19:06:24.391Z,6.70
2023-01-08T19:08:51.827Z,6.70
2023-01-08T19:11:18.807Z,6.70
2023-01-08T19:13:46.808Z,6.70
2023-01-08T19:16:15.919Z,6.70
2023-01-08T19:18:42.920Z,6.80
2023-01-08T19:21:14.840Z,6.90
2023-01-08T19:23:41.882Z,6.90
2023-01-08T19:26:09.469Z,7.00
2023-01-08T19:28:37.102Z,7.00
2023-01-08T19:31:04.915Z,7.10
2023-01-08T19:33:32.144Z,7.10
2023-01-08T19:36:11.329Z,7.10
2023-01-08T19:38:40.121Z,7.10
2023-01-08T19:41:27.433Z,7.10
2023-01-08T19:43:55.804Z,7.20
2023-01-08T19:46:23.115Z,7.30
2023-01-08T19:48:51.189Z,7.30
2023-01-08T19:51:18.149Z,7.40
2023-01-08T19:53:45.656Z,7.40
2023-01-08T19:56:14.252Z,7.50
2023-01-08T19:58:41.972Z,7.50
2023-01-08T20:01:24.109Z,7.50
2023-01-08T20:03:51.658Z,7.50
2023-01-08T20:06:24.039Z,7.50
2023-01-08T20:08:56.169Z,7.50
2023-01-08T20:11:23.572Z,7.50
2023-01-08T20:13:51.688Z,7.50
2023-01-08T20:16:21.656Z,7.40
2023-01-08T20:18:49.642Z,7.40
2023-01-08T20:21:23.511Z,7.50
2023-01-08T20:24:04.629Z,7.50
2023-01-08T20:26:32.205Z,7.50
2023-01-08T20:28:59.608Z,7.50
2023-01-08T20:31:33.071Z,7.50
2023-01-08T20:34:04.139Z,7.50
2023-01-08T20:36:33.999Z,7.50
2023-01-08T20:39:06.842Z,7.40
2023-01-08T20:41:34.048Z,7.40
2023-01-08T20:44:05.386Z,7.40
2023-01-08T20:46:33.973Z,7.50
2023-01-08T20:49:05.047Z,7.50
2023-01-08T20:51:35.330Z,7.40
2023-01-08T20:54:04.846Z,7.50
2023-01-08T20:56:31.838Z,7.50
2023-01-08T20:59:01.164Z,7.50
2023-01-08T21:01:31.443Z,7.50
2023-01-08T21:03:59.846Z,7.50
2023-01-08T21:06:30.488Z,7.50
2023-01-08T21:09:03.337Z,7.50
2023-01-08T21:11:31.107Z,7.50
2023-01-08T21:13:58.143Z,7.60
2023-01-08T21:16:28.933Z,7.60
2023-01-08T21:18:57.152Z,7.60
2023-01-08T21:21:29.714Z,7.60
2023-01-08T21:23:57.443Z,7.70
2023-01-08T21:26:24.965Z,7.70
2023-01-08T21:28:52.464Z,7.60
2023-01-08T21:31:28.722Z,7.70
2023-01-08T21:33:57.806Z,7.70
2023-01-08T21:36:28.161Z,7.70
2023-01-08T21:38:57.713Z,7.70
2023-01-08T21:41:45.732Z,7.70
2023-01-08T21:44:41.276Z,7.70
2023-01-08T21:47:12.839Z,7.60
2023-01-08T21:49:40.805Z,7.60
2023-01-08T21:52:26.143Z,7.60
2023-01-08T21:54:53.951Z,7.60
2023-01-08T21:57:21.405Z,7.60
2023-01-08T21:59:51.932Z,7.60
2023-01-08T22:02:21.706Z,7.60
2023-01-08T22:04:49.175Z,7.60
2023-01-08T22:07:16.988Z,7.60
2023-01-08T22:09:43.959Z,7.60
2023-01-08T22:12:11.013Z,7.60
2023-01-08T22:14:38.100Z,7.60
2023-01-08T22:17:08.327Z,7.60
2023-01-08T22:19:39.555Z,7.70
2023-01-08T22:22:10.426Z,7.70
2023-01-08T22:24:38.952Z,7.60
2023-01-08T22:27:06.761Z,7.60
2023-01-08T22:29:34.886Z,7.60
2023-01-08T22:32:01.877Z,7.60
2023-01-08T22:34:34.360Z,7.60
2023-01-08T22:37:02.076Z,7.60
2023-01-08T22:39:29.447Z,7.60
2023-01-08T22:41:56.837Z,7.60
2023-01-08T22:44:24.000Z,7.60
2023-01-08T22:46:50.901Z,7.60
2023-01-08T22:49:17.895Z,7.60
2023-01-08T22:51:44.919Z,7.60
2023-01-08T22:54:17.126Z,7.60
2023-01-08T22:56:44.205Z,7.60
2023-01-08T22:59:11.111Z,7.60
2023-01-08T23:01:38.171Z,7.60
2023-01-08T23:04:05.588Z,7.60
2023-01-08T23:06:33.076Z,7.60
2023-01-08T23:09:00.429Z,7.60
2023-01-08T23:11:28.100Z,7.60
2023-01-08T23:13:55.675Z,7.60
2023-01-08T23:16:25.628Z,7.50
2023-01-08T23:18:56.403Z,7.50
2023-01-08T23:21:25.963Z,7.60
2023-01-08T23:23:53.601Z,7.50
2023-01-08T23:26:27.667Z,7.50
2023-01-08T23:28:55.833Z,7.50
2023-01-08T23:31:26.994Z,7.50
2023-01-08T23:33:54.825Z,7.50
2023-01-08T23:36:22.808Z,7.50
2023-01-08T23:38:55.367Z,7.50
2023-01-08T23:41:33.097Z,7.40
2023-01-08T23:44:07.562Z,7.50
2023-01-08T23:46:35.586Z,7.50
2023-01-08T23:49:02.569Z,7.50
2023-01-08T23:51:30.247Z,7.40
2023-01-08T23:53:57.191Z,7.50
2023-01-08T23:56:24.345Z,7.50
2023-01-08T23:58:54.013Z,7.50
